createdAt,value
2023-03-16T00:01:21.126Z,35.17
2023-03-16T00:05:20.378Z,32.88
2023-03-16T00:09:20.460Z,33.41
2023-03-16T00:13:20.352Z,34.78
2023-03-16T00:17:20.742Z,34.17
2023-03-16T00:21:21.078Z,37.53
2023-03-16T00:25:20.434Z,36.61
2023-03-16T00:29:20.398Z,36.42
2023-03-16T00:33:20.418Z,39.51
2023-03-16T00:37:20.606Z,37.42
2023-03-16T00:41:20.452Z,38.33
2023-03-16T00:45:20.487Z,36.20
2023-03-16T00:49:20.507Z,38.94
2023-03-16T00:53:20.618Z,38.19
2023-03-16T00:57:20.614Z,38.97
2023-03-16T01:01:20.661Z,37.86
2023-03-16T01:05:20.733Z,36.39
2023-03-16T01:09:20.784Z,37.89
2023-03-16T01:13:20.899Z,38.84
2023-03-16T01:17:21.082Z,38.95
2023-03-16T01:21:20.956Z,42.70
2023-03-16T01:25:21.035Z,40.09
2023-03-16T01:29:21.157Z,40.85
2023-03-16T01:33:21.581Z,38.89
2023-03-16T01:37:21.363Z,43.09
2023-03-16T01:41:21.397Z,41.36
2023-03-16T01:45:21.505Z,41.96
2023-03-16T01:49:21.688Z,39.62
2023-03-16T01:53:22.164Z,42.36
2023-03-16T01:57:21.826Z,41.60
2023-03-16T02:01:21.859Z,40.77
2023-03-16T02:05:21.966Z,41.61
2023-03-16T02:09:22.052Z,43.37
2023-03-16T02:13:22.125Z,38.38
2023-03-16T02:17:22.242Z,41.60
2023-03-16T02:21:22.374Z,40.00
2023-03-16T02:25:22.454Z,39.32
2023-03-16T02:29:22.618Z,40.90
2023-03-16T02:33:22.697Z,41.69
2023-03-16T02:37:22.818Z,38.13
2023-03-16T02:41:22.960Z,37.39
2023-03-16T02:45:23.067Z,39.25
2023-03-16T02:49:23.197Z,39.55
2023-03-16T02:53:23.319Z,40.43
2023-03-16T02:57:23.455Z,39.41
2023-03-16T03:01:23.628Z,40.00
2023-03-16T03:05:24.551Z,37.56
2023-03-16T03:09:23.991Z,36.29
2023-03-16T03:13:24.105Z,36.92
2023-03-16T03:17:24.254Z,40.33
2023-03-16T03:21:25.143Z,36.50
2023-03-16T03:25:24.595Z,39.26
2023-03-16T03:29:24.776Z,37.87
2023-03-16T03:33:24.947Z,38.44
2023-03-16T03:37:25.025Z,36.32
2023-03-16T03:41:25.295Z,38.22
2023-03-16T03:45:25.395Z,36.97
2023-03-16T03:49:25.666Z,35.43
2023-03-16T03:53:26.597Z,35.68
2023-03-16T03:57:26.605Z,36.64
2023-03-16T04:01:26.091Z,35.99
2023-03-16T04:05:26.213Z,36.37
2023-03-16T04:09:26.346Z,35.01
2023-03-16T04:13:26.511Z,38.35
2023-03-16T04:17:26.692Z,34.71
2023-03-16T04:21:26.820Z,42.21
2023-03-16T04:25:26.789Z,45.29
2023-03-16T04:29:26.812Z,47.92
2023-03-16T04:33:26.769Z,49.24
2023-03-16T04:37:26.704Z,51.99
2023-03-16T04:41:26.676Z,48.82
2023-03-16T04:45:29.678Z,53.93
2023-03-16T04:49:26.586Z,48.65
2023-03-16T04:53:26.546Z,42.51
2023-03-16T04:57:26.494Z,50.62
2023-03-16T05:01:26.492Z,44.90
2023-03-16T05:05:26.536Z,43.23
2023-03-16T05:09:26.426Z,44.48
2023-03-16T05:13:26.355Z,42.84
2023-03-16T05:17:26.331Z,40.71
2023-03-16T05:21:26.260Z,43.54
2023-03-16T05:25:26.232Z,40.15
2023-03-16T05:29:26.657Z,39.35
2023-03-16T05:33:26.620Z,39.45
2023-03-16T05:37:26.137Z,37.72
2023-03-16T05:41:26.322Z,39.58
2023-03-16T05:45:26.490Z,37.45
2023-03-16T05:49:26.615Z,38.01
2023-03-16T05:53:26.779Z,33.82
2023-03-16T05:57:26.873Z,37.06
2023-03-16T06:01:27.060Z,33.59
2023-03-16T06:05:27.170Z,32.57
2023-03-16T06:09:27.346Z,34.29
2023-03-16T06:13:27.479Z,31.49
2023-03-16T06:17:27.656Z,32.02
2023-03-16T06:21:28.026Z,32.33
2023-03-16T06:25:28.058Z,35.51
2023-03-16T06:29:28.148Z,29.99
2023-03-16T06:33:29.214Z,29.80
2023-03-16T06:37:28.746Z,26.17
2023-03-16T06:41:29.686Z,29.16
2023-03-16T06:45:29.236Z,36.54
2023-03-16T06:49:28.832Z,26.15
2023-03-16T06:53:28.905Z,27.26
2023-03-16T06:57:32.249Z,28.53
2023-03-16T07:01:29.609Z,25.00
2023-03-16T07:05:28.904Z,27.29
2023-03-16T07:09:29.702Z,27.29
2023-03-16T07:13:28.959Z,27.93
2023-03-16T07:17:28.825Z,26.48
2023-03-16T07:21:28.687Z,27.32
2023-03-16T07:25:28.724Z,29.00
2023-03-16T07:29:28.741Z,29.67
2023-03-16T07:33:29.641Z,28.35
2023-03-16T07:37:28.789Z,32.31
2023-03-16T07:41:30.082Z,33.96
2023-03-16T07:45:29.064Z,29.69
2023-03-16T07:49:28.850Z,31.56
2023-03-16T07:53:28.675Z,32.79
2023-03-16T07:57:28.616Z,34.39
2023-03-16T08:01:28.651Z,36.59
2023-03-16T08:05:28.428Z,36.64
2023-03-16T08:09:28.534Z,35.10
2023-03-16T08:13:28.945Z,36.02
2023-03-16T08:17:28.453Z,36.96
2023-03-16T08:21:28.629Z,38.44
2023-03-16T08:25:28.812Z,37.65
2023-03-16T08:29:28.983Z,36.21
2023-03-16T08:33:29.027Z,24.77
2023-03-16T08:37:29.254Z,25.35
2023-03-16T08:41:29.464Z,26.04
2023-03-16T08:45:31.079Z,30.27
2023-03-16T08:49:29.438Z,28.93
2023-03-16T08:53:29.746Z,29.55
2023-03-16T08:57:29.361Z,29.85
2023-03-16T09:01:29.678Z,32.52
2023-03-16T09:05:34.746Z,35.11
2023-03-16T09:09:29.793Z,35.96
2023-03-16T09:13:29.856Z,36.74
2023-03-16T09:17:30.140Z,39.30
2023-03-16T09:21:30.109Z,39.44
2023-03-16T09:25:32.687Z,37.60
2023-03-16T09:29:30.683Z,45.34
2023-03-16T09:33:30.553Z,47.18
2023-03-16T09:37:44.427Z,49.32
2023-03-16T09:41:32.843Z,50.48
2023-03-16T09:45:31.062Z,44.61
2023-03-16T09:49:30.542Z,44.19
2023-03-16T09:53:30.801Z,35.56
2023-03-16T09:57:30.786Z,34.76
2023-03-16T10:01:31.826Z,28.03
2023-03-16T10:05:30.961Z,25.83
2023-03-16T10:09:31.365Z,25.72
2023-03-16T10:13:31.118Z,31.83
2023-03-16T10:17:31.285Z,29.19
2023-03-16T10:21:31.361Z,30.43
2023-03-16T10:25:31.641Z,34.48
2023-03-16T10:29:31.850Z,30.86
2023-03-16T10:33:32.499Z,34.38
2023-03-16T10:37:32.449Z,37.39
2023-03-16T10:41:32.015Z,43.94
2023-03-16T10:45:35.014Z,42.95
2023-03-16T10:49:33.863Z,59.23
2023-03-16T10:53:32.803Z,60.54
2023-03-16T10:57:32.196Z,71.36
2023-03-16T11:01:32.435Z,84.07
2023-03-16T11:05:32.193Z,97.51
2023-03-16T11:09:32.291Z,102.25
2023-03-16T11:13:32.233Z,112.09
2023-03-16T11:17:32.512Z,115.49
2023-03-16T11:21:32.136Z,118.43
2023-03-16T11:25:32.172Z,117.90
2023-03-16T11:29:32.113Z,118.89
2023-03-16T11:33:31.998Z,110.89
2023-03-16T11:37:32.019Z,110.18
2023-03-16T11:41:31.945Z,115.73
2023-03-16T11:45:31.927Z,127.53
2023-03-16T11:49:31.934Z,109.34
2023-03-16T11:53:31.849Z,121.74
2023-03-16T11:57:31.816Z,108.28
2023-03-16T12:01:32.020Z,165.37
2023-03-16T12:05:31.965Z,201.02
2023-03-16T12:09:31.713Z,218.19
2023-03-16T12:13:31.807Z,205.19
2023-03-16T12:17:31.763Z,187.72
2023-03-16T12:21:34.016Z,167.00
2023-03-16T12:25:31.906Z,173.11
2023-03-16T12:29:32.809Z,174.39
2023-03-16T12:33:31.659Z,171.85
2023-03-16T12:37:31.625Z,169.73
2023-03-16T12:41:31.602Z,163.49
2023-03-16T12:45:31.980Z,164.96
2023-03-16T12:49:31.464Z,163.17
2023-03-16T12:53:31.900Z,162.44
2023-03-16T12:57:31.393Z,164.60
2023-03-16T13:01:31.851Z,162.22
2023-03-16T13:05:31.535Z,159.71
2023-03-16T13:09:31.674Z,156.60
2023-03-16T13:13:31.772Z,159.15
2023-03-16T13:17:31.975Z,155.07
2023-03-16T13:21:31.971Z,157.06
2023-03-16T13:25:32.018Z,152.80
2023-03-16T13:29:32.091Z,149.37
2023-03-16T13:33:32.119Z,149.76
2023-03-16T13:37:32.197Z,146.25
2023-03-16T13:41:32.266Z,149.11
2023-03-16T13:45:32.526Z,150.20
2023-03-16T13:49:32.398Z,148.05
2023-03-16T13:53:32.555Z,145.11
2023-03-16T13:57:32.614Z,145.17
2023-03-16T14:01:32.817Z,144.63
2023-03-16T14:05:32.767Z,144.71
2023-03-16T14:09:33.810Z,143.87
2023-03-16T14:13:33.029Z,141.59
2023-03-16T14:17:33.085Z,136.88
2023-03-16T14:21:33.231Z,135.62
2023-03-16T14:25:33.337Z,136.07
2023-03-16T14:29:33.456Z,139.61
2023-03-16T14:33:33.596Z,138.41
2023-03-16T14:37:33.869Z,135.20
2023-03-16T14:41:33.951Z,134.25
2023-03-16T14:45:34.202Z,134.65
2023-03-16T14:49:34.368Z,137.46
2023-03-16T14:53:34.588Z,136.76
2023-03-16T14:57:34.638Z,133.04
2023-03-16T15:01:35.048Z,131.68
2023-03-16T15:05:36.376Z,131.79
2023-03-16T15:09:34.495Z,129.69
2023-03-16T15:13:34.493Z,126.71
2023-03-16T15:17:34.543Z,131.52
2023-03-16T15:21:34.940Z,125.62
2023-03-16T15:25:34.464Z,126.50
2023-03-16T15:29:34.381Z,129.49
2023-03-16T15:33:34.311Z,129.59
2023-03-16T15:37:35.836Z,130.03
2023-03-16T15:41:46.806Z,127.16
2023-03-16T15:45:35.243Z,134.88
2023-03-16T15:49:46.679Z,133.93
2023-03-16T15:53:35.973Z,132.04
2023-03-16T15:57:34.140Z,132.42
2023-03-16T16:01:34.041Z,135.51
2023-03-16T16:05:34.026Z,132.57
2023-03-16T16:09:34.151Z,132.25
2023-03-16T16:13:44.290Z,137.45
2023-03-16T16:17:50.454Z,139.66
2023-03-16T16:21:35.047Z,140.47
2023-03-16T16:25:34.042Z,143.65
2023-03-16T16:29:34.014Z,144.54
2023-03-16T16:33:33.978Z,143.07
2023-03-16T16:37:33.952Z,138.38
2023-03-16T16:41:36.919Z,139.86
2023-03-16T16:45:33.859Z,138.00
2023-03-16T16:49:33.800Z,136.89
2023-03-16T16:53:33.776Z,134.90
2023-03-16T16:57:33.767Z,135.97
2023-03-16T17:01:33.776Z,135.67
2023-03-16T17:05:33.648Z,133.02
2023-03-16T17:09:33.649Z,130.34
2023-03-16T17:13:33.562Z,132.19
2023-03-16T17:17:33.675Z,127.49
2023-03-16T17:21:33.579Z,126.16
2023-03-16T17:25:33.549Z,121.90
2023-03-16T17:29:35.554Z,124.40
2023-03-16T17:33:33.479Z,125.99
2023-03-16T17:37:33.923Z,128.48
2023-03-16T17:41:34.043Z,126.86
2023-03-16T17:45:33.819Z,126.89
2023-03-16T17:49:34.005Z,123.88
2023-03-16T17:53:34.124Z,124.34
2023-03-16T17:57:34.029Z,125.00
2023-03-16T18:01:34.264Z,123.31
2023-03-16T18:05:34.427Z,121.04
2023-03-16T18:09:34.160Z,120.50
2023-03-16T18:13:34.953Z,118.79
2023-03-16T18:17:34.056Z,114.51
2023-03-16T18:21:34.094Z,120.97
2023-03-16T18:25:35.431Z,115.98
2023-03-16T18:29:34.140Z,118.49
2023-03-16T18:33:34.145Z,114.82
2023-03-16T18:37:34.249Z,117.60
2023-03-16T18:41:34.284Z,117.08
2023-03-16T18:45:34.337Z,116.80
2023-03-16T18:49:34.343Z,115.53
2023-03-16T18:53:34.419Z,115.90
2023-03-16T18:57:34.499Z,116.61
2023-03-16T19:01:35.447Z,112.03
2023-03-16T19:05:34.656Z,113.00
2023-03-16T19:09:34.735Z,115.25
2023-03-16T19:13:34.843Z,111.74
2023-03-16T19:17:34.954Z,112.83
2023-03-16T19:21:34.933Z,115.11
2023-03-16T19:25:36.034Z,116.66
2023-03-16T19:29:35.265Z,120.52
2023-03-16T19:33:35.262Z,118.40
2023-03-16T19:37:35.442Z,113.53
2023-03-16T19:41:35.578Z,119.42
2023-03-16T19:45:35.708Z,119.98
2023-03-16T19:49:35.824Z,119.34
2023-03-16T19:53:36.004Z,116.36
2023-03-16T19:57:36.523Z,112.17
2023-03-16T20:01:38.989Z,117.25
2023-03-16T20:05:36.239Z,115.65
2023-03-16T20:09:36.180Z,118.53
2023-03-16T20:13:36.189Z,110.87
2023-03-16T20:17:36.077Z,113.44
2023-03-16T20:21:36.085Z,109.90
2023-03-16T20:25:36.000Z,110.84
2023-03-16T20:29:36.008Z,109.01
2023-03-16T20:33:35.983Z,112.09
2023-03-16T20:37:35.941Z,107.63
2023-03-16T20:41:36.039Z,105.48
2023-03-16T20:45:35.791Z,105.60
2023-03-16T20:49:35.752Z,101.00
2023-03-16T20:53:35.725Z,103.09
2023-03-16T20:57:35.898Z,101.75
2023-03-16T21:01:36.049Z,109.09
2023-03-16T21:05:36.251Z,105.92
2023-03-16T21:09:36.433Z,101.74
2023-03-16T21:13:36.611Z,98.88
2023-03-16T21:17:36.843Z,101.96
2023-03-16T21:21:36.759Z,94.50
2023-03-16T21:25:36.736Z,94.33
2023-03-16T21:29:36.761Z,93.67
2023-03-16T21:33:36.681Z,91.82
2023-03-16T21:37:37.136Z,98.64
2023-03-16T21:41:36.617Z,97.80
2023-03-16T21:45:36.542Z,91.40
2023-03-16T21:49:36.565Z,95.31
2023-03-16T21:53:36.538Z,90.95
2023-03-16T21:57:37.035Z,89.40
2023-03-16T22:01:38.239Z,87.13
2023-03-16T22:05:36.341Z,92.09
2023-03-16T22:09:36.322Z,86.39
2023-03-16T22:13:36.283Z,89.98
2023-03-16T22:17:36.488Z,91.12
2023-03-16T22:21:36.596Z,87.82
2023-03-16T22:25:36.444Z,84.45
2023-03-16T22:29:36.377Z,82.40
2023-03-16T22:33:36.365Z,85.28
2023-03-16T22:37:36.348Z,85.45
2023-03-16T22:41:36.383Z,83.21
2023-03-16T22:45:36.389Z,80.12
2023-03-16T22:49:36.295Z,80.47
2023-03-16T22:53:36.320Z,79.84
2023-03-16T22:57:36.363Z,82.07
2023-03-16T23:01:36.639Z,78.94
2023-03-16T23:05:36.156Z,79.81
2023-03-16T23:09:36.127Z,79.21
2023-03-16T23:13:36.079Z,79.23
2023-03-16T23:17:36.051Z,74.89
2023-03-16T23:21:36.100Z,74.37
2023-03-16T23:25:35.973Z,74.86
2023-03-16T23:29:35.996Z,69.77
2023-03-16T23:33:35.930Z,79.58
2023-03-16T23:37:36.069Z,71.74
2023-03-16T23:41:35.861Z,75.48
2023-03-16T23:45:35.766Z,74.54
2023-03-16T23:49:36.041Z,75.92
2023-03-16T23:53:35.927Z,70.04
2023-03-16T23:57:35.950Z,73.27
